sensor_id;sensor_type;location;lat;lon;timestamp;pressure;altitude;pressure_sealevel;temperature;humidity
59757;BME280;45631;51.962;5.974;2022-11-04T00:01:42;99878.44;;;10.49;100.00
59757;BME280;45631;51.962;5.974;2022-11-04T00:04:13;99879.44;;;10.48;100.00
59757;BME280;45631;51.962;5.974;2022-11-04T00:06:42;99875.00;;;10.49;100.00
59757;BME280;45631;51.962;5.974;2022-11-04T00:09:13;99883.34;;;10.54;100.00
59757;BME280;45631;51.962;5.974;2022-11-04T00:11:42;99891.94;;;10.56;100.00
59757;BME280;45631;51.962;5.974;2022-11-04T00:14:28;99896.50;;;10.54;100.00
59757;BME280;45631;51.962;5.974;2022-11-04T00:16:57;99906.50;;;10.60;100.00
59757;BME280;45631;51.962;5.974;2022-11-04T00:19:42;99902.31;;;10.58;100.00
59757;BME280;45631;51.962;5.974;2022-11-04T00:22:30;99910.47;;;10.55;100.00
59757;BME280;45631;51.962;5.974;2022-11-04T00:25:15;99904.25;;;10.56;100.00
59757;BME280;45631;51.962;5.974;2022-11-04T00:28:03;99910.84;;;10.39;100.00
59757;BME280;45631;51.962;5.974;2022-11-04T00:30:52;99926.97;;;10.45;100.00
59757;BME280;45631;51.962;5.974;2022-11-04T00:33:21;99924.59;;;10.42;100.00
59757;BME280;45631;51.962;5.974;2022-11-04T00:35:55;99929.13;;;10.52;100.00
59757;BME280;45631;51.962;5.974;2022-11-04T00:38:25;99937.59;;;10.44;100.00
59757;BME280;45631;51.962;5.974;2022-11-04T00:40:53;99929.16;;;10.40;100.00
59757;BME280;45631;51.962;5.974;2022-11-04T00:43:21;99934.75;;;10.36;100.00
59757;BME280;45631;51.962;5.974;2022-11-04T00:45:49;99937.38;;;10.36;100.00
59757;BME280;45631;51.962;5.974;2022-11-04T00:48:17;99946.69;;;10.40;100.00
59757;BME280;45631;51.962;5.974;2022-11-04T00:50:48;99951.56;;;10.33;100.00
59757;BME280;45631;51.962;5.974;2022-11-04T00:53:16;99943.78;;;10.31;100.00
59757;BME280;45631;51.962;5.974;2022-11-04T00:55:45;99946.94;;;10.37;100.00
59757;BME280;45631;51.962;5.974;2022-11-04T00:58:13;99948.69;;;10.25;100.00
59757;BME280;45631;51.962;5.974;2022-11-04T01:00:41;99941.19;;;10.20;100.00
59757;BME280;45631;51.962;5.974;2022-11-04T01:03:10;99950.13;;;10.06;100.00
59757;BME280;45631;51.962;5.974;2022-11-04T01:05:38;99954.66;;;10.15;100.00
59757;BME280;45631;51.962;5.974;2022-11-04T01:08:06;99943.91;;;10.07;100.00
59757;BME280;45631;51.962;5.974;2022-11-04T01:10:34;99956.22;;;10.07;100.00
59757;BME280;45631;51.962;5.974;2022-11-04T01:13:11;99961.22;;;9.98;100.00
59757;BME280;45631;51.962;5.974;2022-11-04T01:15:40;99960.47;;;9.85;100.00
59757;BME280;45631;51.962;5.974;2022-11-04T01:18:08;99958.09;;;9.82;100.00
59757;BME280;45631;51.962;5.974;2022-11-04T01:20:36;99958.47;;;9.89;100.00
59757;BME280;45631;51.962;5.974;2022-11-04T01:23:04;99975.50;;;9.72;100.00
59757;BME280;45631;51.962;5.974;2022-11-04T01:25:33;99986.50;;;9.77;100.00
59757;BME280;45631;51.962;5.974;2022-11-04T01:28:01;99992.09;;;9.72;100.00
59757;BME280;45631;51.962;5.974;2022-11-04T01:30:30;99995.56;;;9.73;100.00
59757;BME280;45631;51.962;5.974;2022-11-04T01:32:58;100001.16;;;9.68;100.00
59757;BME280;45631;51.962;5.974;2022-11-04T01:35:29;100003.88;;;9.67;100.00
59757;BME280;45631;51.962;5.974;2022-11-04T01:37:58;100006.97;;;9.60;100.00
59757;BME280;45631;51.962;5.974;2022-11-04T01:40:26;100007.59;;;9.64;100.00
59757;BME280;45631;51.962;5.974;2022-11-04T01:42:56;100006.97;;;9.60;100.00
59757;BME280;45631;51.962;5.974;2022-11-04T01:45:25;100012.84;;;9.64;100.00
59757;BME280;45631;51.962;5.974;2022-11-04T01:47:58;100009.09;;;9.55;100.00
59757;BME280;45631;51.962;5.974;2022-11-04T01:50:30;100006.97;;;9.60;100.00
59757;BME280;45631;51.962;5.974;2022-11-04T01:53:02;100008.38;;;9.53;100.00
59757;BME280;45631;51.962;5.974;2022-11-04T01:55:35;100016.47;;;9.50;100.00
59757;BME280;45631;51.962;5.974;2022-11-04T01:58:10;100021.31;;;9.43;100.00
59757;BME280;45631;51.962;5.974;2022-11-04T02:00:41;100028.84;;;9.37;100.00
59757;BME280;45631;51.962;5.974;2022-11-04T02:03:14;100023.59;;;9.37;100.00
59757;BME280;45631;51.962;5.974;2022-11-04T02:05:45;100032.53;;;9.34;100.00
59757;BME280;45631;51.962;5.974;2022-11-04T02:08:14;100034.00;;;9.25;100.00
59757;BME280;45631;51.962;5.974;2022-11-04T02:10:47;100040.31;;;9.23;100.00
59757;BME280;45631;51.962;5.974;2022-11-04T02:13:17;100047.13;;;9.25;100.00
59757;BME280;45631;51.962;5.974;2022-11-04T02:15:49;100052.25;;;9.27;100.00
59757;BME280;45631;51.962;5.974;2022-11-04T02:18:36;100061.59;;;9.31;100.00
59757;BME280;45631;51.962;5.974;2022-11-04T02:21:29;100055.41;;;9.32;100.00
59757;BME280;45631;51.962;5.974;2022-11-04T02:24:33;100054.84;;;9.40;100.00
59757;BME280;45631;51.962;5.974;2022-11-04T02:27:17;100061.28;;;9.36;100.00
59757;BME280;45631;51.962;5.974;2022-11-04T02:30:02;100057.47;;;9.40;100.00
59757;BME280;45631;51.962;5.974;2022-11-04T02:35:31;100071.03;;;9.34;100.00
59757;BME280;45631;51.962;5.974;2022-11-04T02:38:09;100072.47;;;9.38;100.00
59757;BME280;45631;51.962;5.974;2022-11-04T02:40:43;100072.38;;;9.39;100.00
59757;BME280;45631;51.962;5.974;2022-11-04T02:43:21;100083.72;;;9.40;100.00
59757;BME280;45631;51.962;5.974;2022-11-04T02:45:58;100078.25;;;9.43;100.00
59757;BME280;45631;51.962;5.974;2022-11-04T02:48:36;100078.47;;;9.40;100.00
59757;BME280;45631;51.962;5.974;2022-11-04T02:51:11;100077.28;;;9.44;100.00
59757;BME280;45631;51.962;5.974;2022-11-04T02:53:44;100074.91;;;9.41;100.00
59757;BME280;45631;51.962;5.974;2022-11-04T02:56:14;100085.16;;;9.44;100.00
59757;BME280;45631;51.962;5.974;2022-11-04T02:58:51;100082.38;;;9.34;100.00
59757;BME280;45631;51.962;5.974;2022-11-04T03:01:24;100090.03;;;9.37;100.00
59757;BME280;45631;51.962;5.974;2022-11-04T03:03:57;100086.38;;;9.27;100.00
59757;BME280;45631;51.962;5.974;2022-11-04T03:06:28;100094.88;;;9.30;100.00
59757;BME280;45631;51.962;5.974;2022-11-04T03:08:59;100104.09;;;9.36;100.00
59757;BME280;45631;51.962;5.974;2022-11-04T03:11:28;100111.84;;;9.38;100.00
59757;BME280;45631;51.962;5.974;2022-11-04T03:14:00;100114.91;;;9.32;100.00
59757;BME280;45631;51.962;5.974;2022-11-04T03:16:36;100126.25;;;9.32;100.00
59757;BME280;45631;51.962;5.974;2022-11-04T03:19:10;100129.72;;;9.33;100.00
59757;BME280;45631;51.962;5.974;2022-11-04T03:21:44;100123.41;;;9.35;100.00
59757;BME280;45631;51.962;5.974;2022-11-04T03:24:14;100130.91;;;9.28;100.00
59757;BME280;45631;51.962;5.974;2022-11-04T03:26:46;100134.97;;;9.33;100.00
59757;BME280;45631;51.962;5.974;2022-11-04T03:29:22;100143.44;;;9.36;100.00
59757;BME280;45631;51.962;5.974;2022-11-04T03:32:01;100149.56;;;9.37;100.00
59757;BME280;45631;51.962;5.974;2022-11-04T03:34:31;100142.94;;;9.31;100.00
59757;BME280;45631;51.962;5.974;2022-11-04T03:37:00;100146.19;;;9.35;100.00
59757;BME280;45631;51.962;5.974;2022-11-04T03:39:28;100150.16;;;9.40;100.00
59757;BME280;45631;51.962;5.974;2022-11-04T03:41:58;100152.19;;;9.37;100.00
59757;BME280;45631;51.962;5.974;2022-11-04T03:44:28;100152.66;;;9.42;100.00
59757;BME280;45631;51.962;5.974;2022-11-04T03:46:58;100158.88;;;9.41;100.00
59757;BME280;45631;51.962;5.974;2022-11-04T03:49:27;100151.22;;;9.38;100.00
59757;BME280;45631;51.962;5.974;2022-11-04T03:51:57;100158.78;;;9.42;100.00
59757;BME280;45631;51.962;5.974;2022-11-04T03:54:25;100159.72;;;9.41;100.00
59757;BME280;45631;51.962;5.974;2022-11-04T04:00:02;100164.22;;;9.39;100.00
59757;BME280;45631;51.962;5.974;2022-11-04T04:02:40;100165.31;;;9.37;100.00
59757;BME280;45631;51.962;5.974;2022-11-04T04:05:19;100173.19;;;9.37;100.00
59757;BME280;45631;51.962;5.974;2022-11-04T04:07:52;100176.63;;;9.37;100.00
59757;BME280;45631;51.962;5.974;2022-11-04T04:10:28;100174.22;;;9.34;100.00
59757;BME280;45631;51.962;5.974;2022-11-04T04:13:16;100176.09;;;9.32;100.00
59757;BME280;45631;51.962;5.974;2022-11-04T04:15:49;100176.84;;;9.34;100.00
59757;BME280;45631;51.962;5.974;2022-11-04T04:18:22;100187.88;;;9.26;100.00
59757;BME280;45631;51.962;5.974;2022-11-04T04:20:52;100184.19;;;9.29;100.00
59757;BME280;45631;51.962;5.974;2022-11-04T04:23:25;100187.66;;;9.29;100.00
59757;BME280;45631;51.962;5.974;2022-11-04T04:26:11;100185.78;;;9.32;100.00
59757;BME280;45631;51.962;5.974;2022-11-04T04:28:59;100184.19;;;9.29;100.00
59757;BME280;45631;51.962;5.974;2022-11-04T04:31:29;100185.78;;;9.32;100.00
59757;BME280;45631;51.962;5.974;2022-11-04T04:34:21;100191.44;;;9.25;100.00
59757;BME280;45631;51.962;5.974;2022-11-04T04:36:52;100186.19;;;9.25;100.00
59757;BME280;45631;51.962;5.974;2022-11-04T04:39:24;100202.50;;;9.18;100.00
59757;BME280;45631;51.962;5.974;2022-11-04T04:42:11;100206.34;;;9.12;100.00
59757;BME280;45631;51.962;5.974;2022-11-04T04:44:57;100210.13;;;9.08;100.00
59757;BME280;45631;51.962;5.974;2022-11-04T04:47:40;100214.03;;;9.15;100.00
59757;BME280;45631;51.962;5.974;2022-11-04T04:50:13;100210.25;;;9.06;100.00
59757;BME280;45631;51.962;5.974;2022-11-04T04:52:45;100206.78;;;9.06;100.00
59757;BME280;45631;51.962;5.974;2022-11-04T04:55:14;100215.19;;;9.11;100.00
59757;BME280;45631;51.962;5.974;2022-11-04T04:57:42;100212.25;;;9.03;100.00
59757;BME280;45631;51.962;5.974;2022-11-04T05:00:12;100216.03;;;8.99;100.00
59757;BME280;45631;51.962;5.974;2022-11-04T05:02:42;100211.41;;;8.89;100.00
59757;BME280;45631;51.962;5.974;2022-11-04T05:05:12;100208.78;;;8.89;100.00
59757;BME280;45631;51.962;5.974;2022-11-04T05:07:41;100208.16;;;8.86;100.00
59757;BME280;45631;51.962;5.974;2022-11-04T05:10:11;100207.59;;;8.80;100.00
59757;BME280;45631;51.962;5.974;2022-11-04T05:12:40;100204.91;;;8.82;100.00
59757;BME280;45631;51.962;5.974;2022-11-04T05:15:26;100205.97;;;8.79;100.00
59757;BME280;45631;51.962;5.974;2022-11-04T05:17:57;100204.16;;;8.80;100.00
59757;BME280;45631;51.962;5.974;2022-11-04T05:20:27;100208.97;;;8.60;100.00
59757;BME280;45631;51.962;5.974;2022-11-04T05:22:56;100215.75;;;8.50;100.00
59757;BME280;45631;51.962;5.974;2022-11-04T05:25:24;100217.09;;;8.43;100.00
59757;BME280;45631;51.962;5.974;2022-11-04T05:27:52;100218.44;;;8.36;100.00
59757;BME280;45631;51.962;5.974;2022-11-04T05:30:20;100231.94;;;8.29;100.00
59757;BME280;45631;51.962;5.974;2022-11-04T05:32:48;100236.00;;;8.21;100.00
59757;BME280;45631;51.962;5.974;2022-11-04T05:35:16;100243.31;;;8.16;100.00
59757;BME280;45631;51.962;5.974;2022-11-04T05:37:45;100246.66;;;8.18;100.00
59757;BME280;45631;51.962;5.974;2022-11-04T05:40:13;100242.63;;;8.26;100.00
59757;BME280;45631;51.962;5.974;2022-11-04T05:42:42;100246.06;;;8.27;100.00
59757;BME280;45631;51.962;5.974;2022-11-04T05:45:10;100241.47;;;8.31;100.00
59757;BME280;45631;51.962;5.974;2022-11-04T05:47:38;100246.72;;;8.31;100.00
59757;BME280;45631;51.962;5.974;2022-11-04T05:50:07;100247.75;;;8.28;100.00
59757;BME280;45631;51.962;5.974;2022-11-04T05:52:35;100252.06;;;8.29;100.00
59757;BME280;45631;51.962;5.974;2022-11-04T05:55:05;100261.22;;;8.22;100.00
59757;BME280;45631;51.962;5.974;2022-11-04T05:57:33;100258.59;;;8.22;100.00
59757;BME280;45631;51.962;5.974;2022-11-04T06:00:05;100269.09;;;8.22;100.00
59757;BME280;45631;51.962;5.974;2022-11-04T06:02:33;100264.59;;;8.24;100.00
59757;BME280;45631;51.962;5.974;2022-11-04T06:05:04;100268.91;;;8.25;100.00
59757;BME280;45631;51.962;5.974;2022-11-04T06:07:33;100269.75;;;8.25;100.00
59757;BME280;45631;51.962;5.974;2022-11-04T06:10:01;100278.63;;;8.23;100.00
59757;BME280;45631;51.962;5.974;2022-11-04T06:12:30;100281.47;;;8.20;100.00
59757;BME280;45631;51.962;5.974;2022-11-04T06:14:58;100288.38;;;8.21;100.00
59757;BME280;45631;51.962;5.974;2022-11-04T06:17:27;100294.91;;;8.28;100.00
59757;BME280;45631;51.962;5.974;2022-11-04T06:19:55;100300.25;;;8.26;100.00
59757;BME280;45631;51.962;5.974;2022-11-04T06:22:23;100296.78;;;8.26;100.00
59757;BME280;45631;51.962;5.974;2022-11-04T06:24:51;100306.22;;;8.28;100.00
59757;BME280;45631;51.962;5.974;2022-11-04T06:27:19;100298.47;;;8.27;100.00
59757;BME280;45631;51.962;5.974;2022-11-04T06:29:49;100309.34;;;8.21;100.00
59757;BME280;45631;51.962;5.974;2022-11-04T06:32:18;100303.66;;;8.14;100.00
59757;BME280;45631;51.962;5.974;2022-11-04T06:34:46;100312.78;;;8.21;100.00
59757;BME280;45631;51.962;5.974;2022-11-04T06:37:14;100313.72;;;8.20;100.00
59757;BME280;45631;51.962;5.974;2022-11-04T06:39:42;100320.66;;;8.21;100.00
59757;BME280;45631;51.962;5.974;2022-11-04T06:42:11;100321.22;;;8.12;100.00
59757;BME280;45631;51.962;5.974;2022-11-04T06:44:39;100322.91;;;8.13;100.00
59757;BME280;45631;51.962;5.974;2022-11-04T06:47:08;100323.03;;;8.11;100.00
59757;BME280;45631;51.962;5.974;2022-11-04T06:49:37;100319.16;;;8.17;100.00
59757;BME280;45631;51.962;5.974;2022-11-04T06:52:05;100323.56;;;8.17;100.00
59757;BME280;45631;51.962;5.974;2022-11-04T06:54:33;100330.78;;;8.13;100.00
59757;BME280;45631;51.962;5.974;2022-11-04T06:57:01;100334.31;;;8.12;100.00
59757;BME280;45631;51.962;5.974;2022-11-04T06:59:30;100337.03;;;8.10;100.00
59757;BME280;45631;51.962;5.974;2022-11-04T07:01:58;100344.59;;;8.15;100.00
59757;BME280;45631;51.962;5.974;2022-11-04T07:04:27;100337.72;;;8.14;100.00
59757;BME280;45631;51.962;5.974;2022-11-04T07:06:55;100342.94;;;8.14;100.00
59757;BME280;45631;51.962;5.974;2022-11-04T07:09:23;100350.75;;;8.28;100.00
59757;BME280;45631;51.962;5.974;2022-11-04T07:11:52;100346.09;;;8.19;100.00
59757;BME280;45631;51.962;5.974;2022-11-04T07:14:20;100343.09;;;8.25;100.00
59757;BME280;45631;51.962;5.974;2022-11-04T07:16:48;100346.38;;;8.29;100.00
59757;BME280;45631;51.962;5.974;2022-11-04T07:19:17;100352.25;;;8.33;100.00
59757;BME280;45631;51.962;5.974;2022-11-04T07:21:47;100347.94;;;8.32;100.00
59757;BME280;45631;51.962;5.974;2022-11-04T07:24:15;100349.44;;;8.36;100.00
59757;BME280;45631;51.962;5.974;2022-11-04T07:26:43;100355.16;;;8.28;100.00
59757;BME280;45631;51.962;5.974;2022-11-04T07:29:11;100349.81;;;8.29;100.00
59757;BME280;45631;51.962;5.974;2022-11-04T07:31:39;100350.56;;;8.46;100.00
59757;BME280;45631;51.962;5.974;2022-11-04T07:34:07;100359.00;;;8.64;100.00
59757;BME280;45631;51.962;5.974;2022-11-04T07:36:35;100370.38;;;8.77;100.00
59757;BME280;45631;51.962;5.974;2022-11-04T07:39:05;100372.66;;;8.96;100.00
59757;BME280;45631;51.962;5.974;2022-11-04T07:41:33;100366.47;;;8.98;100.00
59757;BME280;45631;51.962;5.974;2022-11-04T07:44:01;100368.66;;;8.91;100.00
59757;BME280;45631;51.962;5.974;2022-11-04T07:46:31;100366.56;;;8.96;100.00
59757;BME280;45631;51.962;5.974;2022-11-04T07:49:00;100359.16;;;9.16;100.00
59757;BME280;45631;51.962;5.974;2022-11-04T07:51:28;100353.50;;;9.35;100.00
59757;BME280;45631;51.962;5.974;2022-11-04T07:53:58;100359.28;;;9.53;100.00
59757;BME280;45631;51.962;5.974;2022-11-04T07:56:27;100364.41;;;9.54;100.00
59757;BME280;45631;51.962;5.974;2022-11-04T07:58:55;100368.00;;;9.53;100.00
59757;BME280;45631;51.962;5.974;2022-11-04T08:01:23;100373.88;;;9.70;100.00
59757;BME280;45631;51.962;5.974;2022-11-04T08:03:52;100374.41;;;9.88;100.00
59757;BME280;45631;51.962;5.974;2022-11-04T08:06:21;100384.97;;;9.99;100.00
59757;BME280;45631;51.962;5.974;2022-11-04T08:08:49;100383.59;;;10.19;100.00
59757;BME280;45631;51.962;5.974;2022-11-04T08:11:21;100384.41;;;10.32;100.00
59757;BME280;45631;51.962;5.974;2022-11-04T08:13:53;100385.25;;;10.46;100.00
59757;BME280;45631;51.962;5.974;2022-11-04T08:16:23;100401.72;;;10.48;100.00
59757;BME280;45631;51.962;5.974;2022-11-04T08:18:59;100399.63;;;10.53;100.00
59757;BME280;45631;51.962;5.974;2022-11-04T08:21:29;100408.25;;;10.55;100.00
59757;BME280;45631;51.962;5.974;2022-11-04T08:23:57;100414.34;;;10.56;100.00
59757;BME280;45631;51.962;5.974;2022-11-04T08:26:25;100406.28;;;10.70;100.00
59757;BME280;45631;51.962;5.974;2022-11-04T08:28:55;100406.50;;;10.67;100.00
59757;BME280;45631;51.962;5.974;2022-11-04T08:31:25;100409.63;;;10.72;100.00
59757;BME280;45631;51.962;5.974;2022-11-04T08:33:55;100413.69;;;10.65;100.00
59757;BME280;45631;51.962;5.974;2022-11-04T08:36:25;100414.72;;;10.62;100.00
59757;BME280;45631;51.962;5.974;2022-11-04T08:38:54;100415.31;;;10.79;100.00
59757;BME280;45631;51.962;5.974;2022-11-04T08:41:24;100416.41;;;10.88;100.00
59757;BME280;45631;51.962;5.974;2022-11-04T08:43:55;100421.56;;;10.89;100.00
59757;BME280;45631;51.962;5.974;2022-11-04T08:46:26;100424.94;;;10.91;100.00
59757;BME280;45631;51.962;5.974;2022-11-04T08:48:57;100430.69;;;10.96;100.00
59757;BME280;45631;51.962;5.974;2022-11-04T08:51:27;100438.47;;;10.74;100.00
59757;BME280;45631;51.962;5.974;2022-11-04T08:53:55;100432.84;;;10.54;100.00
59757;BME280;45631;51.962;5.974;2022-11-04T08:56:25;100445.84;;;10.69;100.00
59757;BME280;45631;51.962;5.974;2022-11-04T08:58:56;100449.03;;;10.85;100.00
59757;BME280;45631;51.962;5.974;2022-11-04T09:01:25;100449.94;;;10.97;100.00
59757;BME280;45631;51.962;5.974;2022-11-04T09:04:01;100455.38;;;11.07;100.00
59757;BME280;45631;51.962;5.974;2022-11-04T09:06:31;100452.97;;;11.04;100.00
59757;BME280;45631;51.962;5.974;2022-11-04T09:09:00;100453.75;;;11.17;100.00
59757;BME280;45631;51.962;5.974;2022-11-04T09:11:31;100452.88;;;11.16;100.00
59757;BME280;45631;51.962;5.974;2022-11-04T09:14:01;100452.84;;;11.29;100.00
59757;BME280;45631;51.962;5.974;2022-11-04T09:16:30;100451.28;;;11.27;100.00
59757;BME280;45631;51.962;5.974;2022-11-04T09:18:59;100462.19;;;11.09;100.00
59757;BME280;45631;51.962;5.974;2022-11-04T09:21:29;100462.19;;;11.09;100.00
59757;BME280;45631;51.962;5.974;2022-11-04T09:23:58;100465.06;;;11.30;100.00
59757;BME280;45631;51.962;5.974;2022-11-04T09:26:26;100467.34;;;11.35;100.00
59757;BME280;45631;51.962;5.974;2022-11-04T09:28:55;100468.66;;;11.41;100.00
59757;BME280;45631;51.962;5.974;2022-11-04T09:31:27;100481.31;;;11.36;100.00
59757;BME280;45631;51.962;5.974;2022-11-04T09:33:58;100484.13;;;11.45;100.00
59757;BME280;45631;51.962;5.974;2022-11-04T09:36:26;100492.03;;;11.45;100.00
59757;BME280;45631;51.962;5.974;2022-11-04T09:38:55;100495.53;;;11.57;100.00
59757;BME280;45631;51.962;5.974;2022-11-04T09:41:45;100491.69;;;11.50;100.00
59757;BME280;45631;51.962;5.974;2022-11-04T09:44:22;100504.56;;;11.42;100.00
59757;BME280;45631;51.962;5.974;2022-11-04T09:46:57;100509.34;;;11.37;100.00
59757;BME280;45631;51.962;5.974;2022-11-04T09:49:32;100513.31;;;11.42;100.00
59757;BME280;45631;51.962;5.974;2022-11-04T09:52:07;100519.56;;;11.41;100.00
59757;BME280;45631;51.962;5.974;2022-11-04T09:54:43;100516.66;;;11.33;100.00
59757;BME280;45631;51.962;5.974;2022-11-04T09:57:16;100519.16;;;11.35;100.00
59757;BME280;45631;51.962;5.974;2022-11-04T09:59:45;100517.63;;;11.43;100.00
59757;BME280;45631;51.962;5.974;2022-11-04T10:05:18;100530.78;;;11.43;100.00
59757;BME280;45631;51.962;5.974;2022-11-04T10:08:05;100535.81;;;11.46;100.00
59757;BME280;45631;51.962;5.974;2022-11-04T10:10:47;100527.59;;;11.51;100.00
59757;BME280;45631;51.962;5.974;2022-11-04T10:13:23;100524.47;;;11.46;100.00
59757;BME280;45631;51.962;5.974;2022-11-04T10:16:02;100536.69;;;11.47;100.00
59757;BME280;45631;51.962;5.974;2022-11-04T10:18:50;100533.44;;;11.43;100.00
59757;BME280;45631;51.962;5.974;2022-11-04T10:21:27;100538.56;;;11.45;100.00
59757;BME280;45631;51.962;5.974;2022-11-04T10:24:17;100542.28;;;11.42;100.00
59757;BME280;45631;51.962;5.974;2022-11-04T10:26:51;100551.69;;;11.33;100.00
59757;BME280;45631;51.962;5.974;2022-11-04T10:29:31;100556.03;;;11.35;100.00
59757;BME280;45631;51.962;5.974;2022-11-04T10:32:09;100557.28;;;11.53;100.00
59757;BME280;45631;51.962;5.974;2022-11-04T10:34:52;100548.19;;;11.57;100.00
59757;BME280;45631;51.962;5.974;2022-11-04T10:37:23;100550.13;;;11.55;100.00
59757;BME280;45631;51.962;5.974;2022-11-04T10:39:55;100554.38;;;11.69;100.00
59757;BME280;45631;51.962;5.974;2022-11-04T10:42:31;100551.63;;;11.82;100.00
59757;BME280;45631;51.962;5.974;2022-11-04T10:45:02;100557.19;;;11.90;100.00
59757;BME280;45631;51.962;5.974;2022-11-04T10:47:38;100556.31;;;12.14;100.00
59757;BME280;45631;51.962;5.974;2022-11-04T10:50:33;100548.31;;;12.38;100.00
59757;BME280;45631;51.962;5.974;2022-11-04T10:53:08;100551.66;;;12.29;100.00
59757;BME280;45631;51.962;5.974;2022-11-04T10:55:41;100550.72;;;12.30;100.00
59757;BME280;45631;51.962;5.974;2022-11-04T10:58:16;100546.88;;;12.45;100.00
59757;BME280;45631;51.962;5.974;2022-11-04T11:00:45;100551.31;;;12.56;100.00
59757;BME280;45631;51.962;5.974;2022-11-04T11:03:28;100542.94;;;12.40;100.00
59757;BME280;45631;51.962;5.974;2022-11-04T11:06:13;100553.59;;;12.61;100.00
59757;BME280;45631;51.962;5.974;2022-11-04T11:08:43;100554.66;;;12.58;100.00
59757;BME280;45631;51.962;5.974;2022-11-04T11:11:12;100559.84;;;12.71;100.00
59757;BME280;45631;51.962;5.974;2022-11-04T11:13:43;100553.97;;;12.79;100.00
59757;BME280;45631;51.962;5.974;2022-11-04T11:16:16;100557.69;;;12.76;100.00
59757;BME280;45631;51.962;5.974;2022-11-04T11:18:44;100558.25;;;12.80;100.00
59757;BME280;45631;51.962;5.974;2022-11-04T11:21:41;100565.09;;;12.82;100.00
59757;BME280;45631;51.962;5.974;2022-11-04T11:24:17;100559.84;;;12.71;100.00
59757;BME280;45631;51.962;5.974;2022-11-04T11:26:48;100555.50;;;12.81;100.00
59757;BME280;45631;51.962;5.974;2022-11-04T11:29:23;100553.84;;;12.80;100.00
59757;BME280;45631;51.962;5.974;2022-11-04T11:31:52;100554.06;;;12.89;100.00
59757;BME280;45631;51.962;5.974;2022-11-04T11:34:24;100553.91;;;13.01;100.00
59757;BME280;45631;51.962;5.974;2022-11-04T11:36:55;100563.16;;;12.96;100.00
59757;BME280;45631;51.962;5.974;2022-11-04T11:39:25;100560.06;;;12.91;100.00
59757;BME280;45631;51.962;5.974;2022-11-04T11:41:57;100573.00;;;13.05;100.00
59757;BME280;45631;51.962;5.974;2022-11-04T11:44:28;100568.63;;;13.15;100.00
59757;BME280;45631;51.962;5.974;2022-11-04T11:47:00;100569.50;;;13.16;100.00
59757;BME280;45631;51.962;5.974;2022-11-04T11:49:31;100578.84;;;13.20;100.00
59757;BME280;45631;51.962;5.974;2022-11-04T11:52:26;100574.63;;;13.29;100.00
59757;BME280;45631;51.962;5.974;2022-11-04T11:55:02;100567.44;;;13.19;100.00
59757;BME280;45631;51.962;5.974;2022-11-04T11:57:39;100569.97;;;13.21;100.00
59757;BME280;45631;51.962;5.974;2022-11-04T12:00:12;100571.16;;;13.28;100.00
59757;BME280;45631;51.962;5.974;2022-11-04T12:03:11;100588.56;;;13.31;100.00
59757;BME280;45631;51.962;5.974;2022-11-04T12:05:46;100580.97;;;13.49;100.00
59757;BME280;45631;51.962;5.974;2022-11-04T12:09:11;100594.25;;;13.59;100.00
59757;BME280;45631;51.962;5.974;2022-11-04T12:12:17;100601.56;;;13.55;100.00
59757;BME280;45631;51.962;5.974;2022-11-04T12:14:59;100602.69;;;13.52;100.00
59757;BME280;45631;51.962;5.974;2022-11-04T12:17:42;100605.16;;;13.65;100.00
59757;BME280;45631;51.962;5.974;2022-11-04T12:20:23;100606.53;;;13.81;100.00
59757;BME280;45631;51.962;5.974;2022-11-04T12:23:01;100603.53;;;13.85;100.00
59757;BME280;45631;51.962;5.974;2022-11-04T12:25:40;100612.69;;;13.70;100.00
59757;BME280;45631;51.962;5.974;2022-11-04T12:28:21;100623.63;;;13.44;100.00
59757;BME280;45631;51.962;5.974;2022-11-04T12:31:06;100626.97;;;13.35;100.00
59757;BME280;45631;51.962;5.974;2022-11-04T12:33:44;100631.19;;;13.38;100.00
59757;BME280;45631;51.962;5.974;2022-11-04T12:36:30;100630.16;;;13.61;100.00
59757;BME280;45631;51.962;5.974;2022-11-04T12:39:19;100636.25;;;13.73;100.00
59757;BME280;45631;51.962;5.974;2022-11-04T12:41:56;100640.13;;;13.90;100.00
59757;BME280;45631;51.962;5.974;2022-11-04T12:44:55;100645.50;;;14.00;100.00
59757;BME280;45631;51.962;5.974;2022-11-04T12:47:33;100644.88;;;14.08;100.00
59757;BME280;45631;51.962;5.974;2022-11-04T12:50:12;100654.41;;;13.99;100.00
59757;BME280;45631;51.962;5.974;2022-11-04T12:55:43;100657.09;;;13.88;100.00
59757;BME280;45631;51.962;5.974;2022-11-04T12:58:27;100650.66;;;14.01;100.00
59757;BME280;45631;51.962;5.974;2022-11-04T13:01:02;100653.63;;;13.87;100.00
59757;BME280;45631;51.962;5.974;2022-11-04T13:03:46;100648.47;;;13.85;100.00
59757;BME280;45631;51.962;5.974;2022-11-04T13:06:20;100646.94;;;13.72;100.00
59757;BME280;45631;51.962;5.974;2022-11-04T13:08:56;100644.31;;;13.72;100.00
59757;BME280;45631;51.962;5.974;2022-11-04T13:11:31;100654.63;;;13.75;100.00
59757;BME280;45631;51.962;5.974;2022-11-04T13:14:05;100657.75;;;13.80;100.00
59757;BME280;45631;51.962;5.974;2022-11-04T13:16:36;100664.13;;;13.98;100.00
59757;BME280;45631;51.962;5.974;2022-11-04T13:19:19;100666.91;;;13.97;100.00
59757;BME280;45631;51.962;5.974;2022-11-04T13:21:50;100678.44;;;13.96;100.00
59757;BME280;45631;51.962;5.974;2022-11-04T13:24:25;100678.22;;;13.99;100.00
59757;BME280;45631;51.962;5.974;2022-11-04T13:26:59;100683.31;;;14.12;100.00
59757;BME280;45631;51.962;5.974;2022-11-04T13:29:30;100676.72;;;14.06;100.00